createdAt,value
2023-04-29T00:02:36.356Z,0.20
2023-04-29T00:05:59.513Z,2.70
2023-04-29T00:09:22.213Z,0.70
2023-04-29T00:12:44.670Z,0.43
2023-04-29T00:16:07.870Z,0.40
2023-04-29T00:19:30.172Z,0.30
2023-04-29T00:22:52.397Z,0.10
2023-04-29T00:26:14.606Z,0.20
2023-04-29T00:29:41.098Z,0.22
2023-04-29T00:33:03.881Z,0.40
2023-04-29T00:36:26.368Z,0.30
2023-04-29T00:39:49.319Z,0.30
2023-04-29T00:43:11.629Z,0.40
2023-04-29T00:46:34.836Z,0.55
2023-04-29T00:49:57.389Z,0.30
2023-04-29T00:53:20.293Z,0.40
2023-04-29T00:56:46.304Z,0.60
2023-04-29T01:00:10.207Z,0.20
2023-04-29T01:03:32.912Z,0.20
2023-04-29T01:07:01.453Z,0.38
2023-04-29T01:10:36.235Z,0.20
2023-04-29T01:14:00.880Z,0.30
2023-04-29T01:17:27.973Z,0.77
2023-04-29T01:20:50.925Z,0.38
2023-04-29T01:24:14.131Z,0.65
2023-04-29T01:28:14.305Z,5.32
2023-04-29T01:31:53.733Z,0.35
2023-04-29T01:35:41.092Z,0.35
2023-04-29T01:39:14.537Z,1.08
2023-04-29T01:42:52.425Z,0.20
2023-04-29T01:46:18.559Z,0.43
2023-04-29T01:49:41.467Z,0.20
2023-04-29T01:53:03.780Z,0.30
2023-04-29T01:56:26.200Z,0.30
2023-04-29T02:00:03.433Z,0.20
2023-04-29T02:03:42.850Z,0.52
2023-04-29T02:07:07.205Z,0.95
2023-04-29T02:10:29.918Z,0.40
2023-04-29T02:14:19.409Z,0.52
2023-04-29T02:17:41.712Z,0.10
2023-04-29T02:21:04.242Z,0.70
2023-04-29T02:24:29.012Z,0.28
2023-04-29T02:27:51.633Z,0.10
2023-04-29T02:31:13.929Z,0.22
2023-04-29T02:34:40.211Z,0.30
2023-04-29T02:38:02.492Z,0.40
2023-04-29T02:41:25.921Z,0.10
2023-04-29T02:44:48.132Z,0.13
2023-04-29T02:48:10.437Z,1.17
2023-04-29T02:51:33.533Z,0.10
2023-04-29T02:54:55.978Z,0.20
2023-04-29T02:58:18.393Z,0.10
2023-04-29T03:01:40.812Z,0.10
2023-04-29T03:05:04.750Z,0.20
2023-04-29T03:08:27.874Z,0.20
2023-04-29T03:11:50.176Z,0.20
2023-04-29T03:15:13.400Z,0.10
2023-04-29T03:18:35.817Z,1.00
2023-04-29T03:21:58.122Z,0.30
2023-04-29T03:25:20.511Z,0.22
2023-04-29T03:28:42.902Z,0.43
2023-04-29T03:32:05.270Z,0.20
2023-04-29T03:35:27.940Z,0.40
2023-04-29T03:39:12.952Z,0.15
2023-04-29T03:42:35.436Z,0.40
2023-04-29T03:45:58.748Z,0.50
2023-04-29T03:49:21.417Z,1.35
2023-04-29T03:52:44.698Z,1.05
2023-04-29T03:56:11.401Z,0.47
2023-04-29T03:59:33.789Z,1.65
2023-04-29T04:02:56.655Z,0.40
2023-04-29T04:06:19.222Z,0.40
2023-04-29T04:09:41.752Z,0.40
2023-04-29T04:13:04.858Z,0.40
2023-04-29T04:16:27.815Z,0.30
2023-04-29T04:19:50.938Z,0.90
2023-04-29T04:23:13.981Z,0.40
2023-04-29T04:26:36.735Z,0.45
2023-04-29T04:33:35.165Z,0.30
2023-04-29T04:36:57.488Z,0.40
2023-04-29T04:40:19.958Z,0.40
2023-04-29T04:44:14.163Z,0.32
2023-04-29T04:47:45.694Z,0.40
2023-04-29T04:51:16.384Z,0.50
2023-04-29T04:54:38.895Z,0.30
2023-04-29T04:58:11.545Z,0.40
2023-04-29T05:01:34.560Z,0.50
2023-04-29T05:04:57.044Z,0.50
2023-04-29T05:08:22.673Z,0.45
2023-04-29T05:11:46.560Z,0.50
2023-04-29T05:15:11.796Z,0.40
2023-04-29T05:18:34.756Z,0.40
2023-04-29T05:21:57.167Z,0.20
2023-04-29T05:25:19.541Z,2.17
2023-04-29T05:28:42.573Z,0.95
2023-04-29T05:32:05.649Z,0.90
2023-04-29T05:35:27.922Z,0.65
2023-04-29T05:38:50.610Z,0.30
2023-04-29T05:42:14.003Z,0.40
2023-04-29T05:45:41.089Z,0.63
2023-04-29T05:49:03.382Z,0.20
2023-04-29T05:52:25.857Z,0.30
2023-04-29T05:55:51.236Z,0.28
2023-04-29T05:59:15.366Z,0.30
2023-04-29T06:02:54.970Z,0.30
2023-04-29T06:06:21.355Z,0.22
2023-04-29T06:09:58.554Z,0.65
2023-04-29T06:13:22.048Z,0.40
2023-04-29T06:16:44.582Z,0.45
2023-04-29T06:20:07.560Z,1.38
2023-04-29T06:23:29.766Z,1.27
2023-04-29T06:26:54.045Z,1.10
2023-04-29T06:30:16.384Z,0.30
2023-04-29T06:33:39.762Z,0.40
2023-04-29T06:37:02.105Z,1.23
2023-04-29T06:40:41.140Z,0.35
2023-04-29T06:44:22.416Z,2.83
2023-04-29T06:47:58.034Z,3.60
2023-04-29T06:51:32.439Z,1.67
2023-04-29T06:54:55.335Z,1.70
2023-04-29T06:58:18.912Z,2.13
2023-04-29T07:01:44.044Z,0.30
2023-04-29T07:05:07.566Z,8.77
2023-04-29T07:08:30.994Z,2.47
2023-04-29T07:11:53.894Z,0.90
2023-04-29T07:15:16.217Z,1.98
2023-04-29T07:18:38.889Z,1.45
2023-04-29T07:22:02.173Z,0.50
2023-04-29T07:25:24.496Z,2.60
2023-04-29T07:28:48.094Z,0.50
2023-04-29T07:32:10.453Z,0.57
2023-04-29T07:35:34.338Z,1.20
2023-04-29T07:38:56.787Z,0.68
2023-04-29T07:42:19.099Z,1.02
2023-04-29T07:45:41.730Z,0.60
2023-04-29T07:49:05.128Z,5.80
2023-04-29T07:52:27.503Z,5.20
2023-04-29T07:55:49.751Z,0.80
2023-04-29T07:59:12.539Z,2.75
2023-04-29T08:02:35.103Z,4.53
2023-04-29T08:06:05.559Z,0.70
2023-04-29T08:09:29.833Z,2.50
2023-04-29T08:12:52.115Z,2.30
2023-04-29T08:16:14.543Z,1.10
2023-04-29T08:19:36.908Z,3.25
2023-04-29T08:23:00.710Z,5.05
2023-04-29T08:26:24.100Z,1.27
2023-04-29T08:29:46.650Z,1.30
2023-04-29T08:33:09.155Z,2.65
2023-04-29T08:36:31.427Z,0.82
2023-04-29T08:39:53.672Z,4.68
2023-04-29T08:43:17.167Z,0.47
2023-04-29T08:46:39.916Z,0.90
2023-04-29T08:50:04.587Z,9.75
2023-04-29T08:53:27.269Z,1.50
2023-04-29T08:56:51.786Z,2.75
2023-04-29T09:00:14.385Z,1.15
2023-04-29T09:03:57.210Z,2.55
2023-04-29T09:07:20.297Z,2.53
2023-04-29T09:10:43.188Z,4.30
2023-04-29T09:14:05.480Z,1.20
2023-04-29T09:17:46.033Z,1.60
2023-04-29T09:21:27.152Z,0.98
2023-04-29T09:24:49.461Z,2.88
2023-04-29T09:28:16.903Z,2.50
2023-04-29T09:31:39.768Z,3.50
2023-04-29T09:35:25.648Z,4.88
2023-04-29T09:42:17.674Z,2.92
2023-04-29T09:45:42.268Z,1.67
2023-04-29T09:49:22.418Z,4.72
2023-04-29T09:52:44.750Z,2.00
2023-04-29T09:56:08.024Z,4.40
2023-04-29T09:59:30.534Z,3.10
2023-04-29T10:02:57.155Z,4.82
2023-04-29T10:06:19.710Z,3.55
2023-04-29T10:09:42.290Z,4.13
2023-04-29T10:13:05.439Z,5.32
2023-04-29T10:16:34.504Z,1.30
2023-04-29T10:20:08.421Z,4.28
2023-04-29T10:23:31.168Z,2.80
2023-04-29T10:26:56.198Z,3.22
2023-04-29T10:30:19.220Z,8.80
2023-04-29T10:33:46.154Z,13.40
2023-04-29T10:37:12.635Z,12.88
2023-04-29T10:40:46.701Z,10.60
2023-04-29T10:44:09.102Z,10.75
2023-04-29T10:47:31.403Z,19.52
2023-04-29T10:51:03.369Z,9.88
2023-04-29T10:54:26.091Z,11.52
2023-04-29T10:57:48.297Z,6.05
2023-04-29T11:01:12.374Z,8.55
2023-04-29T11:04:34.646Z,9.68
2023-04-29T11:08:13.098Z,5.43
2023-04-29T11:12:01.565Z,3.40
2023-04-29T11:15:23.919Z,4.53
2023-04-29T11:19:05.053Z,10.18
2023-04-29T11:22:30.674Z,3.50
2023-04-29T11:25:53.053Z,6.70
2023-04-29T11:29:15.568Z,4.85
2023-04-29T11:32:45.739Z,4.32
2023-04-29T11:36:09.576Z,7.75
2023-04-29T11:39:36.198Z,3.05
2023-04-29T11:42:58.494Z,2.30
2023-04-29T11:46:20.806Z,7.90
2023-04-29T11:49:43.318Z,6.55
2023-04-29T11:53:06.030Z,4.45
2023-04-29T11:56:28.377Z,2.60
2023-04-29T11:59:50.935Z,1.67
2023-04-29T12:03:17.636Z,4.07
2023-04-29T12:06:41.661Z,4.40
2023-04-29T12:10:04.158Z,2.60
2023-04-29T12:13:30.085Z,2.25
2023-04-29T12:16:54.214Z,2.63
2023-04-29T12:20:16.647Z,3.78
2023-04-29T12:23:41.026Z,1.85
2023-04-29T12:27:04.636Z,2.20
2023-04-29T12:30:27.345Z,2.67
2023-04-29T12:33:49.638Z,2.17
2023-04-29T12:37:13.222Z,3.03
2023-04-29T12:40:35.398Z,3.80
2023-04-29T12:43:57.694Z,3.63
2023-04-29T12:47:21.496Z,3.83
2023-04-29T12:50:48.942Z,1.70
2023-04-29T12:54:11.631Z,1.42
2023-04-29T12:57:33.876Z,1.08
2023-04-29T13:00:56.455Z,2.78
2023-04-29T13:04:18.857Z,1.70
2023-04-29T13:07:41.755Z,1.40
2023-04-29T13:11:04.053Z,8.65
2023-04-29T13:14:26.874Z,2.88
2023-04-29T13:17:49.463Z,3.08
2023-04-29T13:21:11.941Z,2.70
2023-04-29T13:24:14.298Z,2.45
2023-04-29T13:27:16.316Z,1.30
2023-04-29T13:30:18.560Z,1.15
2023-04-29T13:33:20.737Z,1.88
2023-04-29T13:36:23.066Z,3.15
2023-04-29T13:39:25.320Z,1.50
2023-04-29T13:42:27.864Z,3.30
2023-04-29T13:45:30.536Z,1.42
2023-04-29T13:55:04.446Z,1.40
2023-04-29T13:58:40.268Z,1.92
2023-04-29T14:04:39.254Z,4.15
2023-04-29T14:07:41.850Z,3.97
2023-04-29T14:10:43.888Z,1.25
2023-04-29T14:13:46.149Z,0.93
2023-04-29T14:16:48.793Z,2.55
2023-04-29T14:19:51.052Z,1.52
2023-04-29T14:23:05.186Z,0.75
2023-04-29T14:26:23.042Z,1.30
2023-04-29T14:29:29.857Z,1.95
2023-04-29T14:32:31.876Z,1.95
2023-04-29T14:35:34.109Z,1.08
2023-04-29T14:38:54.818Z,0.70
2023-04-29T14:42:18.688Z,3.13
2023-04-29T14:45:41.675Z,0.70
2023-04-29T14:49:04.308Z,1.55
2023-04-29T14:52:26.579Z,3.88
2023-04-29T14:55:52.476Z,2.15
2023-04-29T14:59:14.852Z,3.75
2023-04-29T15:02:37.063Z,1.50
2023-04-29T15:06:01.498Z,2.15
2023-04-29T15:09:24.784Z,0.75
2023-04-29T15:12:47.003Z,1.05
2023-04-29T15:16:09.375Z,2.35
2023-04-29T15:19:31.875Z,1.60
2023-04-29T15:22:54.747Z,1.33
2023-04-29T15:26:17.131Z,0.65
2023-04-29T15:29:39.376Z,0.88
2023-04-29T15:33:01.988Z,2.85
2023-04-29T15:36:30.228Z,1.08
2023-04-29T15:39:52.901Z,0.80
2023-04-29T15:43:15.557Z,0.70
2023-04-29T15:46:37.892Z,0.80
2023-04-29T15:50:00.204Z,1.40
2023-04-29T15:53:23.290Z,0.80
2023-04-29T15:56:45.493Z,0.90
2023-04-29T16:00:08.941Z,4.43
2023-04-29T16:03:31.178Z,1.60
2023-04-29T16:06:53.846Z,0.70
2023-04-29T16:10:16.310Z,0.70
2023-04-29T16:13:38.708Z,1.30
2023-04-29T16:17:01.137Z,0.77
2023-04-29T16:20:23.588Z,0.80
2023-04-29T16:23:46.383Z,0.60
2023-04-29T16:27:08.694Z,0.73
2023-04-29T16:30:30.882Z,0.88
2023-04-29T16:33:55.379Z,2.72
2023-04-29T16:37:17.627Z,0.88
2023-04-29T16:40:39.911Z,0.50
2023-04-29T16:44:02.073Z,0.60
2023-04-29T16:47:24.968Z,0.70
2023-04-29T16:50:49.199Z,0.90
2023-04-29T16:54:12.698Z,0.60
2023-04-29T16:57:35.766Z,0.70
2023-04-29T17:00:58.069Z,0.50
2023-04-29T17:04:20.354Z,0.80
2023-04-29T17:07:43.053Z,0.70
2023-04-29T17:11:05.691Z,0.70
2023-04-29T17:14:27.974Z,0.60
2023-04-29T17:17:51.266Z,0.60
2023-04-29T17:21:13.628Z,0.70
2023-04-29T17:24:36.187Z,0.80
2023-04-29T17:27:58.429Z,0.70
2023-04-29T17:31:25.060Z,1.08
2023-04-29T17:34:47.340Z,0.60
2023-04-29T17:38:09.661Z,0.60
2023-04-29T17:41:33.328Z,1.20
2023-04-29T17:44:55.659Z,1.40
2023-04-29T17:48:19.311Z,0.80
2023-04-29T17:51:41.516Z,0.75
2023-04-29T17:55:04.020Z,0.70
2023-04-29T17:58:28.944Z,0.70
2023-04-29T18:05:13.806Z,0.60
2023-04-29T18:08:36.586Z,0.50
2023-04-29T18:11:58.787Z,0.82
2023-04-29T18:15:23.078Z,0.68
2023-04-29T18:18:45.374Z,0.73
2023-04-29T18:22:09.379Z,0.70
2023-04-29T18:25:31.656Z,0.57
2023-04-29T18:28:54.000Z,0.75
2023-04-29T18:32:16.405Z,0.73
2023-04-29T18:35:38.666Z,1.60
2023-04-29T18:39:00.941Z,1.05
2023-04-29T18:42:23.329Z,0.90
2023-04-29T18:45:45.824Z,3.10
2023-04-29T18:49:08.650Z,0.80
2023-04-29T18:52:30.893Z,1.70
2023-04-29T18:55:53.372Z,0.98
2023-04-29T18:59:18.928Z,0.73
2023-04-29T19:02:41.299Z,0.93
2023-04-29T19:06:03.867Z,1.08
2023-04-29T19:09:32.650Z,0.80
2023-04-29T19:12:55.354Z,1.55
2023-04-29T19:16:17.615Z,1.00
2023-04-29T19:19:39.967Z,1.52
2023-04-29T19:23:02.304Z,1.40
2023-04-29T19:26:25.043Z,1.15
2023-04-29T19:29:47.397Z,1.15
2023-04-29T19:33:09.698Z,6.45
2023-04-29T19:36:33.159Z,1.52
2023-04-29T19:39:55.552Z,1.25
2023-04-29T19:43:18.139Z,1.00
2023-04-29T19:46:41.154Z,1.95
2023-04-29T19:50:04.488Z,1.33
2023-04-29T19:53:27.430Z,1.45
2023-04-29T19:56:49.656Z,1.40
2023-04-29T20:00:14.688Z,1.60
2023-04-29T20:03:39.334Z,1.63
2023-04-29T20:07:01.679Z,1.42
2023-04-29T20:10:23.981Z,4.03
2023-04-29T20:13:46.327Z,1.67
2023-04-29T20:17:08.654Z,3.92
2023-04-29T20:20:30.958Z,1.63
2023-04-29T20:23:53.646Z,2.80
2023-04-29T20:27:15.954Z,1.70
2023-04-29T20:30:38.292Z,2.28
2023-04-29T20:34:00.475Z,1.80
2023-04-29T20:37:23.117Z,1.80
2023-04-29T20:40:45.411Z,1.67
2023-04-29T20:44:07.757Z,3.65
2023-04-29T20:47:30.092Z,2.30
2023-04-29T20:50:52.411Z,1.90
2023-04-29T20:54:14.854Z,1.90
2023-04-29T20:57:37.375Z,1.80
2023-04-29T21:00:59.631Z,2.10
2023-04-29T21:04:22.020Z,1.73
2023-04-29T21:07:44.274Z,2.97
2023-04-29T21:11:07.805Z,3.50
2023-04-29T21:14:30.009Z,2.45
2023-04-29T21:17:52.332Z,2.40
2023-04-29T21:21:14.627Z,1.90
2023-04-29T21:24:36.910Z,2.20
2023-04-29T21:27:59.175Z,1.90
2023-04-29T21:31:21.468Z,2.85
2023-04-29T21:34:43.755Z,4.60
2023-04-29T21:38:07.365Z,2.40
2023-04-29T21:41:32.942Z,2.25
2023-04-29T21:44:59.071Z,2.50
2023-04-29T21:48:21.922Z,2.97
2023-04-29T21:51:44.245Z,2.72
2023-04-29T21:55:07.200Z,2.45
2023-04-29T21:58:29.474Z,2.58
2023-04-29T22:02:00.113Z,2.88
2023-04-29T22:05:22.645Z,2.67
2023-04-29T22:08:44.891Z,2.50
2023-04-29T22:12:07.186Z,2.35
2023-04-29T22:15:29.796Z,2.67
2023-04-29T22:18:52.339Z,2.83
2023-04-29T22:22:14.580Z,3.85
2023-04-29T22:25:36.965Z,2.55
2023-04-29T22:28:59.197Z,3.00
2023-04-29T22:32:21.519Z,2.90
2023-04-29T22:35:43.758Z,3.03
2023-04-29T22:39:09.088Z,3.53
2023-04-29T22:42:31.386Z,2.63
2023-04-29T22:45:54.671Z,3.60
2023-04-29T22:49:16.918Z,2.40
2023-04-29T22:52:39.718Z,2.70
2023-04-29T22:56:02.158Z,3.22
2023-04-29T22:59:24.626Z,2.53
2023-04-29T23:02:47.184Z,3.47
2023-04-29T23:06:09.552Z,2.90
2023-04-29T23:09:31.805Z,2.88
2023-04-29T23:12:54.204Z,2.55
2023-04-29T23:16:16.484Z,2.97
2023-04-29T23:19:38.738Z,3.03
2023-04-29T23:23:00.978Z,2.65
2023-04-29T23:26:23.424Z,2.97
2023-04-29T23:29:45.784Z,2.75
2023-04-29T23:33:08.173Z,2.78
2023-04-29T23:36:31.280Z,2.80
2023-04-29T23:39:54.014Z,2.92
2023-04-29T23:43:17.231Z,3.00
2023-04-29T23:46:39.639Z,3.20
2023-04-29T23:50:01.933Z,2.88
2023-04-29T23:53:24.195Z,2.60
2023-04-29T23:56:46.517Z,2.88
